Time;durP1;ratioP1;P1;durP2;ratioP2;P2;SDS_P1;SDS_P2;PMS_P1;PMS_P2;Temp;Humidity;BMP_temperature;BMP_pressure;BME280_temperature;BME280_humidity;BME280_pressure;Samples;Min_cycle;Max_cycle;Signal;HPM_P1;HPM_P2
2023/09/30 00:02:12;;;;;;;20.97;8.40;;;13.80;99.90;;;;;;4952157;28;20179;-70
2023/09/30 00:04:39;;;;;;;17.07;8.30;;;13.80;99.90;;;;;;4960107;28;20198;-70
2023/09/30 00:07:05;;;;;;;16.43;7.83;;;13.80;99.90;;;;;;4960106;28;20236;-71
2023/09/30 00:09:30;;;;;;;16.80;8.13;;;13.70;99.90;;;;;;4951528;28;20213;-71
2023/09/30 00:11:56;;;;;;;15.40;8.33;;;13.70;99.90;;;;;;4952025;28;20186;-71
2023/09/30 00:14:21;;;;;;;20.27;7.90;;;13.70;99.90;;;;;;4952201;28;20214;-71
2023/09/30 00:16:47;;;;;;;14.77;8.47;;;13.60;99.90;;;;;;4951832;28;20567;-71
2023/09/30 00:19:13;;;;;;;19.23;8.90;;;13.60;99.90;;;;;;4947097;28;20191;-70
2023/09/30 00:21:39;;;;;;;19.83;9.17;;;13.60;99.90;;;;;;4941546;28;20254;-70
2023/09/30 00:24:05;;;;;;;17.13;8.30;;;13.60;99.90;;;;;;4948180;28;20273;-70
2023/09/30 00:26:31;;;;;;;17.73;8.83;;;13.50;99.90;;;;;;4955532;28;20747;-70
2023/09/30 00:28:56;;;;;;;20.97;9.07;;;13.50;99.90;;;;;;4967367;28;20642;-70
2023/09/30 00:31:22;;;;;;;17.97;8.73;;;13.50;99.90;;;;;;4944020;28;20190;-70
2023/09/30 00:33:48;;;;;;;20.07;8.70;;;13.40;99.90;;;;;;4953519;28;20218;-70
2023/09/30 00:36:13;;;;;;;21.80;8.43;;;13.30;99.90;;;;;;4958111;28;20724;-69
2023/09/30 00:38:40;;;;;;;17.03;8.23;;;13.30;99.90;;;;;;4951051;28;20202;-70
2023/09/30 00:41:06;;;;;;;17.67;8.33;;;13.20;99.90;;;;;;4956097;28;20184;-69
2023/09/30 00:43:32;;;;;;;19.97;7.90;;;13.20;99.90;;;;;;4971129;28;20216;-68
2023/09/30 00:46:17;;;;;;;16.80;7.83;;;13.10;99.90;;;;;;4966623;28;20210;-69
2023/09/30 00:48:43;;;;;;;14.43;7.67;;;13.10;99.90;;;;;;4951038;28;20261;-70
2023/09/30 00:51:09;;;;;;;19.90;7.97;;;13.10;99.90;;;;;;4947541;28;20195;-70
2023/09/30 00:53:34;;;;;;;16.40;7.63;;;13.10;99.90;;;;;;4948359;28;20269;-69
2023/09/30 00:56:00;;;;;;;13.57;7.17;;;13.00;99.90;;;;;;4951651;28;20191;-69
2023/09/30 00:58:28;;;;;;;15.00;7.77;;;13.00;99.90;;;;;;4951213;29;20182;-69
2023/09/30 01:00:56;;;;;;;12.07;7.60;;;13.00;99.90;;;;;;4954277;28;20233;-69
2023/09/30 01:03:23;;;;;;;15.33;8.37;;;13.00;99.90;;;;;;4956771;28;20206;-70
2023/09/30 01:05:49;;;;;;;14.90;7.60;;;13.00;99.90;;;;;;4959586;28;20281;-69
2023/09/30 01:08:16;;;;;;;12.50;7.37;;;12.90;99.90;;;;;;4967356;28;20665;-71
2023/09/30 01:10:42;;;;;;;16.20;8.20;;;12.90;99.90;;;;;;4957349;28;20650;-69
2023/09/30 01:13:07;;;;;;;12.60;7.50;;;12.90;99.90;;;;;;4955058;28;20248;-70
2023/09/30 01:15:33;;;;;;;15.53;7.33;;;12.90;99.90;;;;;;4955158;28;20258;-70
2023/09/30 01:17:58;;;;;;;18.93;8.13;;;12.80;99.90;;;;;;4954822;28;20281;-70
2023/09/30 01:20:24;;;;;;;11.97;7.20;;;12.80;99.90;;;;;;4954721;28;20190;-70
2023/09/30 01:22:50;;;;;;;17.80;7.90;;;12.70;99.90;;;;;;4954781;28;20229;-70
2023/09/30 01:25:16;;;;;;;17.93;7.83;;;12.70;99.90;;;;;;4960512;28;20178;-70
2023/09/30 01:27:42;;;;;;;15.20;7.37;;;12.60;99.90;;;;;;4957772;28;20309;-70
2023/09/30 01:30:10;;;;;;;22.60;8.20;;;12.60;99.90;;;;;;4961384;28;20282;-70
2023/09/30 01:32:36;;;;;;;15.77;7.80;;;12.50;99.90;;;;;;4954980;28;20595;-70
2023/09/30 01:35:02;;;;;;;16.03;7.70;;;12.50;99.90;;;;;;4954960;28;20205;-70
2023/09/30 01:37:28;;;;;;;15.90;7.40;;;12.40;99.90;;;;;;4954420;28;20698;-69
2023/09/30 01:39:54;;;;;;;20.47;8.20;;;12.40;99.90;;;;;;4960608;28;20182;-70
2023/09/30 01:42:20;;;;;;;17.47;7.70;;;12.40;99.90;;;;;;4954642;28;20182;-70
2023/09/30 01:44:46;;;;;;;17.97;8.47;;;12.40;99.90;;;;;;4954598;28;20185;-70
2023/09/30 01:47:11;;;;;;;14.60;7.80;;;12.40;99.90;;;;;;4967346;28;20209;-70
2023/09/30 01:49:37;;;;;;;17.13;8.13;;;12.30;99.90;;;;;;4964635;28;20217;-69
2023/09/30 01:52:03;;;;;;;16.70;7.77;;;12.30;99.90;;;;;;4962463;28;20233;-70
2023/09/30 01:54:29;;;;;;;18.00;7.50;;;12.30;99.90;;;;;;4954336;28;20277;-69
2023/09/30 01:56:54;;;;;;;22.13;8.63;;;12.30;99.90;;;;;;4946250;28;20218;-70
2023/09/30 01:59:21;;;;;;;12.93;7.27;;;12.20;99.90;;;;;;4959650;28;20220;-70
2023/09/30 02:01:47;;;;;;;16.60;7.97;;;12.10;99.90;;;;;;4956491;28;20186;-69
2023/09/30 02:04:15;;;;;;;18.33;7.93;;;12.10;99.90;;;;;;4959276;28;20213;-70
2023/09/30 02:06:44;;;;;;;23.40;9.23;;;12.10;99.90;;;;;;4963965;28;20206;-68
2023/09/30 02:09:09;;;;;;;16.57;8.27;;;12.10;99.90;;;;;;4946698;28;20182;-70
2023/09/30 02:11:36;;;;;;;17.77;7.40;;;12.00;99.90;;;;;;4954154;28;20269;-69
2023/09/30 02:14:02;;;;;;;17.83;7.63;;;12.00;99.90;;;;;;4957607;28;20202;-70
2023/09/30 02:16:28;;;;;;;18.17;8.00;;;12.00;99.90;;;;;;4958571;28;20565;-70
2023/09/30 02:18:53;;;;;;;15.60;7.70;;;11.90;99.90;;;;;;4952160;28;20201;-69
2023/09/30 02:21:19;;;;;;;17.37;8.17;;;11.90;99.90;;;;;;4961936;28;20634;-70
2023/09/30 02:23:47;;;;;;;15.93;7.40;;;11.90;99.90;;;;;;4945519;28;20203;-69
2023/09/30 02:26:14;;;;;;;17.43;7.83;;;11.90;99.90;;;;;;4953869;28;20257;-69
2023/09/30 02:28:39;;;;;;;17.47;8.50;;;11.90;99.90;;;;;;4961032;28;20606;-69
2023/09/30 02:31:07;;;;;;;15.60;7.53;;;11.90;99.90;;;;;;4953682;29;20194;-69
2023/09/30 02:33:37;;;;;;;17.57;7.63;;;11.90;99.90;;;;;;4953618;28;20265;-70
2023/09/30 02:36:05;;;;;;;20.20;8.07;;;11.80;99.90;;;;;;4945743;28;20215;-70
2023/09/30 02:38:31;;;;;;;17.10;8.37;;;11.80;99.90;;;;;;4967147;28;20214;-69
2023/09/30 02:40:57;;;;;;;14.10;7.70;;;11.70;99.90;;;;;;4953423;28;20608;-69
2023/09/30 02:43:22;;;;;;;17.23;8.20;;;11.70;99.90;;;;;;4953525;28;20607;-69
2023/09/30 02:45:48;;;;;;;16.97;8.23;;;11.70;99.90;;;;;;4968047;28;20222;-68
2023/09/30 02:48:13;;;;;;;17.20;8.50;;;11.70;99.90;;;;;;4952756;28;20194;-68
2023/09/30 02:50:44;;;;;;;18.03;7.93;;;11.60;99.90;;;;;;4968060;28;20586;-68
2023/09/30 02:53:09;;;;;;;13.33;7.33;;;11.60;99.90;;;;;;4953396;28;20218;-69
2023/09/30 02:55:35;;;;;;;16.90;7.63;;;11.50;99.90;;;;;;4953413;28;20195;-69
2023/09/30 02:58:00;;;;;;;16.13;7.90;;;11.50;99.90;;;;;;4967801;28;20285;-69
2023/09/30 03:00:26;;;;;;;18.57;9.17;;;11.50;99.90;;;;;;4952705;28;20265;-68
2023/09/30 03:02:55;;;;;;;14.00;7.70;;;11.40;99.90;;;;;;4953009;28;20218;-69
2023/09/30 03:05:23;;;;;;;18.13;7.90;;;11.30;99.90;;;;;;4953223;28;20650;-69
2023/09/30 03:07:50;;;;;;;19.00;8.07;;;11.30;99.90;;;;;;4953092;28;20202;-69
2023/09/30 03:10:23;;;;;;;13.07;7.47;;;11.20;99.90;;;;;;4944809;28;20189;-68
2023/09/30 03:12:50;;;;;;;19.93;8.23;;;11.10;99.90;;;;;;4954780;28;20289;-69
2023/09/30 03:15:16;;;;;;;18.10;7.77;;;11.10;99.90;;;;;;4959733;28;20237;-68
2023/09/30 03:17:43;;;;;;;19.73;7.63;;;11.10;99.90;;;;;;4952877;28;20199;-69
2023/09/30 03:20:14;;;;;;;18.33;7.87;;;11.00;99.90;;;;;;4956385;28;20662;-69
2023/09/30 03:22:40;;;;;;;17.93;7.80;;;11.00;99.90;;;;;;4963657;28;20194;-68
2023/09/30 03:25:07;;;;;;;14.67;7.33;;;10.90;99.90;;;;;;4960117;28;20182;-68
2023/09/30 03:27:33;;;;;;;17.40;8.30;;;10.90;99.90;;;;;;4952559;29;20194;-68
2023/09/30 03:30:01;;;;;;;16.53;7.40;;;10.90;99.90;;;;;;4951693;28;20183;-69
2023/09/30 03:32:26;;;;;;;19.73;8.60;;;10.90;99.90;;;;;;4952523;28;20178;-69
2023/09/30 03:34:53;;;;;;;15.13;7.93;;;10.70;99.90;;;;;;4944513;28;20194;-69
2023/09/30 03:37:19;;;;;;;14.00;7.13;;;10.60;99.90;;;;;;4967066;28;20222;-69
2023/09/30 03:39:49;;;;;;;13.53;7.30;;;10.60;99.90;;;;;;4951596;28;20187;-69
2023/09/30 03:42:14;;;;;;;20.10;8.47;;;10.60;99.90;;;;;;4952657;28;20206;-68
2023/09/30 03:44:40;;;;;;;19.10;7.87;;;10.50;99.90;;;;;;4944293;28;20266;-68
2023/09/30 03:47:07;;;;;;;15.63;8.40;;;10.50;99.90;;;;;;4960138;28;20206;-69
2023/09/30 03:49:32;;;;;;;16.40;7.53;;;10.50;99.90;;;;;;4951844;28;20600;-68
2023/09/30 03:51:58;;;;;;;15.17;8.37;;;10.40;99.90;;;;;;4952210;28;20190;-69
2023/09/30 03:54:24;;;;;;;20.40;7.60;;;10.40;99.90;;;;;;4952244;28;20217;-68
2023/09/30 03:56:49;;;;;;;16.77;7.33;;;10.40;99.90;;;;;;4951955;28;20744;-68
2023/09/30 03:59:15;;;;;;;13.77;7.90;;;10.40;99.90;;;;;;4947152;28;20197;-68
2023/09/30 04:01:42;;;;;;;15.27;7.50;;;10.30;99.90;;;;;;4949316;28;20193;-68
2023/09/30 04:04:09;;;;;;;14.77;8.23;;;10.20;99.90;;;;;;4952293;28;20193;-68
2023/09/30 04:06:38;;;;;;;13.60;7.77;;;10.20;99.90;;;;;;4951993;28;20245;-70
2023/09/30 04:09:09;;;;;;;13.10;7.70;;;10.10;99.90;;;;;;4943663;28;20595;-69
2023/09/30 04:11:35;;;;;;;15.77;8.53;;;10.10;99.90;;;;;;4966254;28;20236;-69
2023/09/30 04:14:01;;;;;;;13.93;8.23;;;10.00;99.90;;;;;;4951887;28;20210;-70
2023/09/30 04:16:28;;;;;;;17.80;8.23;;;10.00;99.90;;;;;;4966863;28;20603;-69
2023/09/30 04:18:55;;;;;;;18.17;8.20;;;10.00;99.90;;;;;;4951211;28;20182;-70
2023/09/30 04:21:20;;;;;;;17.47;7.87;;;9.90;99.90;;;;;;4952067;28;20181;-70
2023/09/30 04:23:46;;;;;;;20.20;8.93;;;9.90;99.90;;;;;;4966606;28;20194;-69
2023/09/30 04:26:12;;;;;;;18.57;8.57;;;9.90;99.90;;;;;;4951142;28;20291;-69
2023/09/30 04:28:38;;;;;;;15.43;7.50;;;9.80;99.90;;;;;;4951205;28;20551;-69
2023/09/30 04:31:04;;;;;;;15.83;7.60;;;9.80;99.90;;;;;;4951922;28;20233;-69
2023/09/30 04:33:34;;;;;;;18.57;8.47;;;9.80;99.90;;;;;;4952062;28;20206;-70
2023/09/30 04:36:01;;;;;;;18.00;8.40;;;9.80;99.90;;;;;;4951720;29;20265;-70
2023/09/30 04:38:27;;;;;;;13.40;7.90;;;9.80;99.90;;;;;;4956356;28;20216;-70
2023/09/30 04:40:54;;;;;;;13.93;7.60;;;9.80;99.90;;;;;;4952957;28;20622;-70
2023/09/30 04:43:20;;;;;;;17.57;8.50;;;9.90;99.90;;;;;;4954916;28;20618;-70
2023/09/30 04:45:47;;;;;;;19.40;8.77;;;10.00;99.90;;;;;;4955321;28;20190;-70
2023/09/30 04:48:12;;;;;;;14.77;8.10;;;10.10;99.90;;;;;;4954888;28;20186;-69
2023/09/30 04:50:39;;;;;;;16.60;8.53;;;10.10;99.90;;;;;;4955275;28;20197;-69
2023/09/30 04:53:05;;;;;;;21.07;8.60;;;10.10;99.90;;;;;;4955355;28;20258;-70
2023/09/30 04:55:31;;;;;;;16.97;8.60;;;10.10;99.90;;;;;;4970221;28;20186;-70
2023/09/30 04:57:56;;;;;;;16.00;8.23;;;10.10;99.90;;;;;;4953932;28;20211;-69
2023/09/30 05:00:24;;;;;;;16.63;8.07;;;10.20;99.90;;;;;;4954845;28;20194;-69
2023/09/30 05:02:52;;;;;;;16.73;7.77;;;10.20;99.90;;;;;;4955101;28;20186;-70
2023/09/30 05:05:18;;;;;;;22.43;9.17;;;10.20;99.90;;;;;;4955265;28;20643;-69
2023/09/30 05:07:44;;;;;;;19.93;8.53;;;10.30;99.90;;;;;;4954802;28;20234;-69
2023/09/30 05:10:13;;;;;;;20.83;8.80;;;10.40;99.90;;;;;;4954455;28;20194;-70
2023/09/30 05:12:39;;;;;;;16.43;8.30;;;10.40;99.90;;;;;;4953579;28;20239;-69
2023/09/30 05:15:06;;;;;;;18.63;8.30;;;10.40;99.90;;;;;;4955108;28;20287;-69
2023/09/30 05:17:31;;;;;;;18.53;9.00;;;10.50;99.90;;;;;;4954839;28;20210;-70
2023/09/30 05:19:57;;;;;;;20.73;9.47;;;10.50;99.90;;;;;;4954080;28;20194;-70
2023/09/30 05:22:24;;;;;;;21.30;9.53;;;10.60;99.90;;;;;;4960884;28;20575;-70
2023/09/30 05:24:53;;;;;;;23.67;10.87;;;10.50;99.90;;;;;;4972428;28;20190;-70
2023/09/30 05:27:19;;;;;;;19.30;9.50;;;10.50;99.90;;;;;;4954507;28;20256;-70
2023/09/30 05:29:45;;;;;;;25.97;9.87;;;10.50;99.90;;;;;;4968604;28;20265;-70
2023/09/30 05:32:11;;;;;;;21.93;9.80;;;10.60;99.90;;;;;;4967016;28;20706;-70
2023/09/30 05:34:38;;;;;;;28.93;11.10;;;10.60;99.90;;;;;;4957942;28;20210;-69
2023/09/30 05:37:04;;;;;;;29.00;10.83;;;10.60;99.90;;;;;;4954701;28;20309;-70
2023/09/30 05:39:31;;;;;;;28.17;10.40;;;10.70;99.90;;;;;;4953859;28;20717;-70
2023/09/30 05:42:00;;;;;;;25.60;10.53;;;10.70;99.90;;;;;;4953917;28;20564;-70
2023/09/30 05:44:28;;;;;;;28.93;10.60;;;10.70;99.90;;;;;;4952994;28;20197;-69
2023/09/30 05:46:54;;;;;;;22.87;10.90;;;10.70;99.90;;;;;;4953205;28;20269;-71
2023/09/30 05:49:20;;;;;;;35.10;11.23;;;10.70;99.90;;;;;;4952848;28;20186;-70
2023/09/30 05:51:50;;;;;;;29.97;11.37;;;10.70;99.90;;;;;;4953437;28;20250;-70
2023/09/30 05:54:16;;;;;;;27.27;10.60;;;10.80;99.90;;;;;;4952015;28;20206;-70
2023/09/30 05:56:43;;;;;;;31.40;11.73;;;10.80;99.90;;;;;;4952201;28;20207;-70
2023/09/30 05:59:09;;;;;;;34.57;11.70;;;10.80;99.90;;;;;;4951587;28;20178;-68
2023/09/30 06:01:35;;;;;;;28.50;11.33;;;10.80;99.90;;;;;;4953243;28;20686;-67
2023/09/30 06:04:01;;;;;;;35.43;12.67;;;10.90;99.90;;;;;;4953033;28;20291;-68
2023/09/30 06:06:30;;;;;;;29.10;10.50;;;10.90;99.90;;;;;;4953202;29;20701;-68
2023/09/30 06:08:59;;;;;;;24.47;9.30;;;10.90;99.90;;;;;;4951751;28;20245;-68
2023/09/30 06:11:28;;;;;;;23.37;10.13;;;10.90;99.90;;;;;;4953166;28;20182;-68
2023/09/30 06:14:00;;;;;;;25.97;9.70;;;10.90;99.90;;;;;;4959617;28;20213;-68
2023/09/30 06:16:27;;;;;;;29.70;11.30;;;11.00;99.90;;;;;;4961117;28;20202;-68
2023/09/30 06:18:53;;;;;;;24.90;9.67;;;11.00;99.90;;;;;;4952228;28;20179;-68
2023/09/30 06:21:24;;;;;;;23.03;9.40;;;11.00;99.90;;;;;;4953078;28;20341;-69
2023/09/30 06:23:51;;;;;;;24.80;9.80;;;11.00;99.90;;;;;;4952793;28;20186;-68
2023/09/30 06:26:18;;;;;;;25.07;9.73;;;11.00;99.90;;;;;;4958044;28;20217;-69
2023/09/30 06:28:44;;;;;;;20.23;8.93;;;11.00;99.90;;;;;;4954850;28;20202;-68
2023/09/30 06:31:10;;;;;;;21.77;10.07;;;11.00;99.90;;;;;;4953045;28;20249;-68
2023/09/30 06:33:38;;;;;;;20.93;8.90;;;11.10;99.90;;;;;;4953219;28;20296;-69
2023/09/30 06:36:08;;;;;;;22.70;9.17;;;11.00;99.90;;;;;;4960356;28;20772;-68
2023/09/30 06:38:34;;;;;;;21.83;9.73;;;11.10;99.90;;;;;;4952439;28;20175;-68
2023/09/30 06:41:01;;;;;;;23.17;9.07;;;11.20;99.90;;;;;;4964619;28;20191;-69
2023/09/30 06:43:27;;;;;;;21.53;8.80;;;11.30;99.90;;;;;;4962114;28;20599;-69
2023/09/30 06:45:54;;;;;;;20.27;9.23;;;11.30;99.90;;;;;;4961703;28;20259;-68
2023/09/30 06:48:19;;;;;;;23.30;9.20;;;11.50;99.90;;;;;;4952003;28;20594;-68
2023/09/30 06:50:48;;;;;;;24.53;9.03;;;11.40;99.90;;;;;;4952030;28;20217;-68
2023/09/30 06:53:21;;;;;;;22.33;9.97;;;11.50;99.90;;;;;;4952434;28;20202;-68
2023/09/30 06:55:47;;;;;;;19.30;8.40;;;11.50;99.90;;;;;;4952142;28;20192;-68
2023/09/30 06:58:13;;;;;;;20.20;8.30;;;11.60;99.90;;;;;;4959767;28;20560;-68
2023/09/30 07:00:41;;;;;;;20.37;8.47;;;11.60;99.90;;;;;;4952180;28;20678;-68
2023/09/30 07:03:09;;;;;;;20.37;9.10;;;11.70;99.90;;;;;;4952304;28;20189;-69
2023/09/30 07:05:36;;;;;;;22.00;8.77;;;11.80;99.90;;;;;;4959840;28;20611;-69
2023/09/30 07:08:02;;;;;;;17.90;8.00;;;11.80;99.90;;;;;;4951739;28;20670;-69
2023/09/30 07:10:31;;;;;;;17.33;7.20;;;11.80;99.90;;;;;;4959964;28;20188;-69
2023/09/30 07:12:57;;;;;;;26.73;7.87;;;11.90;99.90;;;;;;4960842;28;20225;-69
2023/09/30 07:15:23;;;;;;;19.80;7.43;;;11.90;99.90;;;;;;4952882;28;20239;-68
2023/09/30 07:17:48;;;;;;;16.50;6.47;;;11.80;99.90;;;;;;4950983;28;20618;-68
2023/09/30 07:20:15;;;;;;;20.50;6.87;;;11.90;99.90;;;;;;4958204;28;20187;-69
2023/09/30 07:22:41;;;;;;;17.17;7.27;;;12.00;99.90;;;;;;4951493;28;20361;-68
2023/09/30 07:25:08;;;;;;;13.83;6.50;;;12.00;99.90;;;;;;4952041;28;20182;-69
2023/09/30 07:27:33;;;;;;;14.57;7.10;;;12.10;99.90;;;;;;4959721;28;20198;-68
2023/09/30 07:29:59;;;;;;;15.87;7.27;;;12.20;99.90;;;;;;4951217;28;20754;-69
2023/09/30 07:32:25;;;;;;;13.77;6.50;;;12.20;99.90;;;;;;4957880;28;20205;-68
2023/09/30 07:34:51;;;;;;;14.77;6.67;;;12.10;99.90;;;;;;4945484;28;20206;-69
2023/09/30 07:37:20;;;;;;;16.97;6.67;;;12.00;99.90;;;;;;4951649;28;20206;-69
2023/09/30 07:39:46;;;;;;;16.80;6.77;;;12.10;99.90;;;;;;4951275;28;20521;-69
2023/09/30 07:42:12;;;;;;;16.87;6.90;;;12.00;99.90;;;;;;4959697;28;20205;-70
2023/09/30 07:44:38;;;;;;;12.53;6.30;;;12.00;99.90;;;;;;4947070;28;20175;-69
2023/09/30 07:47:06;;;;;;;14.40;7.30;;;12.20;99.90;;;;;;4951030;28;20733;-69
2023/09/30 07:49:32;;;;;;;16.03;7.10;;;12.30;99.90;;;;;;4943256;28;20248;-69
2023/09/30 07:51:58;;;;;;;12.43;7.03;;;12.40;99.90;;;;;;4951242;28;20193;-70
2023/09/30 07:54:23;;;;;;;15.93;7.20;;;12.50;99.90;;;;;;4951418;28;20341;-69
2023/09/30 07:56:49;;;;;;;15.57;7.70;;;12.40;99.90;;;;;;4959218;28;20300;-69
2023/09/30 07:59:15;;;;;;;12.97;6.87;;;12.60;99.90;;;;;;4958799;28;20187;-69
2023/09/30 08:01:41;;;;;;;16.00;7.17;;;12.60;99.90;;;;;;4951402;28;20178;-69
2023/09/30 08:04:07;;;;;;;15.30;6.70;;;12.70;99.90;;;;;;4959046;28;20770;-70
2023/09/30 08:06:32;;;;;;;17.27;7.50;;;12.70;99.90;;;;;;4943549;28;20202;-70
2023/09/30 08:08:58;;;;;;;12.87;6.63;;;12.80;99.90;;;;;;4950717;28;20245;-70
2023/09/30 08:11:27;;;;;;;15.73;7.43;;;12.90;99.90;;;;;;4951477;28;20262;-68
2023/09/30 08:13:53;;;;;;;17.57;7.47;;;12.90;99.90;;;;;;4951175;28;20584;-68
2023/09/30 08:16:19;;;;;;;17.50;7.43;;;13.00;99.90;;;;;;4956453;28;20297;-70
2023/09/30 08:18:45;;;;;;;14.37;8.17;;;13.00;99.90;;;;;;4958521;28;20182;-70
2023/09/30 08:21:13;;;;;;;15.10;7.00;;;12.90;99.90;;;;;;4962248;28;20545;-69
2023/09/30 08:23:39;;;;;;;18.27;7.40;;;13.10;99.90;;;;;;4962111;28;20178;-69
2023/09/30 08:26:05;;;;;;;14.03;6.80;;;12.90;99.90;;;;;;4949120;28;20678;-69
2023/09/30 08:28:31;;;;;;;14.43;6.97;;;13.20;99.90;;;;;;4946784;28;20198;-70
2023/09/30 08:31:05;;;;;;;14.87;7.27;;;13.50;99.90;;;;;;4952614;28;20543;-70
2023/09/30 08:33:31;;;;;;;16.20;7.10;;;13.70;99.90;;;;;;4954297;28;20206;-70
2023/09/30 08:36:06;;;;;;;18.27;7.07;;;14.00;99.90;;;;;;4962776;28;20665;-70
2023/09/30 08:38:32;;;;;;;16.07;7.27;;;14.40;99.90;;;;;;4946622;28;20189;-70
2023/09/30 08:40:59;;;;;;;13.37;6.37;;;14.40;99.90;;;;;;4951595;28;20203;-70
2023/09/30 08:43:31;;;;;;;14.43;6.23;;;14.70;99.90;;;;;;4960065;28;20229;-68
2023/09/30 08:45:59;;;;;;;11.63;5.80;;;14.80;99.90;;;;;;4952865;28;20201;-68
2023/09/30 08:48:27;;;;;;;11.70;6.03;;;14.90;99.90;;;;;;4954255;28;20556;-70
2023/09/30 08:50:57;;;;;;;11.33;5.63;;;14.80;99.90;;;;;;4962436;28;20584;-70
2023/09/30 08:53:23;;;;;;;10.53;5.10;;;15.10;99.90;;;;;;4968683;28;20214;-70
2023/09/30 08:55:53;;;;;;;9.83;5.07;;;15.50;99.90;;;;;;4954392;28;20235;-70
2023/09/30 08:58:19;;;;;;;10.00;4.80;;;16.20;99.90;;;;;;4954133;28;20210;-70
2023/09/30 09:00:45;;;;;;;9.30;4.77;;;16.70;99.90;;;;;;4954427;28;20189;-69
2023/09/30 09:03:11;;;;;;;9.30;4.70;;;17.40;99.90;;;;;;4968374;28;20183;-69
2023/09/30 09:05:37;;;;;;;10.63;4.80;;;17.60;99.90;;;;;;4954617;28;20179;-68
2023/09/30 09:08:02;;;;;;;8.90;4.60;;;17.80;99.90;;;;;;4952652;28;20233;-68
2023/09/30 09:10:28;;;;;;;8.27;4.03;;;17.70;99.90;;;;;;4953985;28;20302;-69
2023/09/30 09:12:56;;;;;;;7.80;4.23;;;18.00;99.90;;;;;;4954163;28;20202;-68
2023/09/30 09:15:28;;;;;;;6.80;3.70;;;18.70;99.90;;;;;;4954242;28;20185;-69
2023/09/30 09:17:54;;;;;;;8.27;3.50;;;19.20;99.90;;;;;;4962035;28;20210;-69
2023/09/30 09:20:25;;;;;;;8.57;3.13;;;19.70;99.90;;;;;;4952624;28;20194;-69
2023/09/30 09:22:55;;;;;;;6.73;2.57;;;20.10;99.90;;;;;;4946174;28;20187;-69
2023/09/30 09:25:22;;;;;;;9.53;3.27;;;20.50;99.90;;;;;;4948855;28;20569;-68
2023/09/30 09:27:49;;;;;;;6.80;2.93;;;20.90;99.90;;;;;;4952086;28;20206;-70
2023/09/30 09:30:15;;;;;;;9.47;3.07;;;21.10;99.90;;;;;;4968509;28;20183;-70
2023/09/30 09:32:53;;;;;;;6.57;2.70;;;21.40;99.90;;;;;;4962167;28;20272;-68
2023/09/30 09:35:21;;;;;;;9.10;2.73;;;21.70;99.90;;;;;;4957443;28;20242;-68
2023/09/30 09:38:06;;;;;;;6.23;2.67;;;22.10;99.90;;;;;;4950734;28;20222;-70
2023/09/30 09:40:34;;;;;;;8.70;2.80;;;22.60;99.90;;;;;;4945447;28;20182;-70
2023/09/30 09:43:04;;;;;;;10.83;4.00;;;22.50;99.90;;;;;;4961742;28;20221;-69
2023/09/30 09:45:32;;;;;;;7.60;3.00;;;22.50;99.90;;;;;;4953849;28;20646;-69
2023/09/30 09:47:58;;;;;;;12.50;2.80;;;23.00;99.90;;;;;;4953684;28;20198;-71
2023/09/30 09:50:24;;;;;;;8.63;2.20;;;23.40;99.90;;;;;;4953170;28;20530;-67
2023/09/30 09:52:53;;;;;;;8.70;2.23;;;24.00;99.90;;;;;;4953418;28;20445;-69
2023/09/30 09:55:21;;;;;;;9.20;1.93;;;24.60;99.90;;;;;;4958603;28;20713;-68
2023/09/30 09:57:48;;;;;;;8.60;1.90;;;24.80;99.90;;;;;;4955760;28;20293;-68
2023/09/30 10:00:23;;;;;;;8.20;2.33;;;24.70;99.90;;;;;;4960868;28;20186;-69
2023/09/30 10:02:50;;;;;;;7.67;2.07;;;24.60;99.90;;;;;;4953206;28;20186;-68
2023/09/30 10:05:17;;;;;;;7.80;1.93;;;24.50;99.90;;;;;;4953373;28;20209;-69
2023/09/30 10:07:56;;;;;;;7.43;1.80;;;23.80;99.90;;;;;;4961096;28;20205;-68
2023/09/30 10:10:24;;;;;;;5.57;1.83;;;23.40;99.90;;;;;;4967674;28;20654;-68
2023/09/30 10:12:50;;;;;;;8.73;2.20;;;23.20;99.90;;;;;;4953036;28;20181;-67
2023/09/30 10:15:24;;;;;;;6.13;1.53;;;22.30;99.90;;;;;;4961113;28;20185;-68
2023/09/30 10:18:03;;;;;;;4.80;1.50;;;22.00;99.90;;;;;;4952964;28;20208;-68
2023/09/30 10:20:35;;;;;;;8.40;1.83;;;21.50;99.90;;;;;;4952982;28;20265;-70
2023/09/30 10:23:18;;;;;;;8.27;2.60;;;21.10;99.90;;;;;;4953356;28;20190;-70
2023/09/30 10:25:47;;;;;;;7.60;1.87;;;20.80;99.90;;;;;;4969371;28;20681;-70
2023/09/30 10:28:38;;;;;;;6.83;1.70;;;20.40;99.90;;;;;;4960165;28;20256;-68
2023/09/30 10:31:12;;;;;;;8.17;2.60;;;20.10;99.90;;;;;;4952759;28;20190;-69
2023/09/30 10:34:00;;;;;;;8.73;2.17;;;19.80;99.90;;;;;;4960132;28;20209;-64
2023/09/30 10:36:45;;;;;;;7.23;1.40;;;19.70;99.90;;;;;;4947200;28;20558;-68
2023/09/30 10:39:18;;;;;;;4.57;1.20;;;20.30;99.90;;;;;;4951585;28;20253;-69
2023/09/30 10:41:45;;;;;;;4.03;1.50;;;20.50;99.90;;;;;;4960742;28;20274;-69
2023/09/30 10:44:25;;;;;;;7.97;1.70;;;20.60;99.90;;;;;;4960340;28;20185;-69
2023/09/30 10:46:54;;;;;;;5.17;1.40;;;21.10;99.90;;;;;;4951644;28;20681;-71
2023/09/30 10:49:22;;;;;;;7.50;1.50;;;21.20;99.90;;;;;;4952061;28;20182;-71
2023/09/30 10:51:52;;;;;;;5.30;1.40;;;21.40;99.90;;;;;;4952550;28;20274;-68
2023/09/30 10:54:26;;;;;;;7.77;1.60;;;21.60;99.90;;;;;;4956948;28;20202;-67
2023/09/30 10:56:52;;;;;;;7.67;1.57;;;21.80;99.90;;;;;;4954407;28;20221;-69
2023/09/30 10:59:34;;;;;;;5.27;1.53;;;21.90;99.90;;;;;;4952035;28;20178;-68
2023/09/30 11:02:00;;;;;;;6.93;1.77;;;21.90;99.90;;;;;;4952251;28;20190;-69
2023/09/30 11:04:29;;;;;;;6.50;1.70;;;22.20;99.90;;;;;;4952351;28;20189;-68
2023/09/30 11:06:54;;;;;;;6.37;1.80;;;22.30;99.90;;;;;;4950300;28;20232;-70
2023/09/30 11:09:22;;;;;;;6.50;1.40;;;22.30;99.90;;;;;;4945230;28;20674;-70
2023/09/30 11:11:50;;;;;;;5.50;1.47;;;22.10;99.90;;;;;;4953716;28;20206;-67
2023/09/30 11:14:30;;;;;;;6.80;1.60;;;22.40;99.90;;;;;;4958914;28;20370;-69
2023/09/30 11:16:59;;;;;;;29.60;12.70;;;22.50;99.90;;;;;;4959943;28;20284;-67
2023/09/30 11:19:25;;;;;;;6.43;1.67;;;22.70;99.90;;;;;;4951295;28;20592;-67
2023/09/30 11:21:52;;;;;;;7.30;1.80;;;22.80;99.90;;;;;;4953077;28;20213;-68
2023/09/30 11:24:18;;;;;;;4.63;1.20;;;22.80;99.90;;;;;;4958755;28;20192;-68
2023/09/30 11:26:45;;;;;;;5.10;1.23;;;22.70;99.90;;;;;;4951834;28;20207;-66
2023/09/30 11:29:15;;;;;;;7.70;1.43;;;22.30;99.90;;;;;;4966911;28;20185;-68
2023/09/30 11:31:46;;;;;;;10.63;1.93;;;22.20;99.90;;;;;;4959675;28;20186;-67
2023/09/30 11:34:13;;;;;;;12.27;1.70;;;22.00;99.90;;;;;;4944448;28;20278;-67
2023/09/30 11:36:56;;;;;;;6.63;1.80;;;21.50;99.90;;;;;;4951785;28;20222;-68
2023/09/30 11:39:24;;;;;;;4.93;1.47;;;21.40;99.90;;;;;;4933015;28;20182;-70
2023/09/30 11:41:50;;;;;;;6.63;1.40;;;21.50;99.90;;;;;;4953910;28;20175;-69
2023/09/30 11:44:17;;;;;;;6.30;1.87;;;21.80;99.90;;;;;;4951637;28;20210;-68
2023/09/30 11:46:52;;;;;;;5.93;1.50;;;21.90;99.90;;;;;;4959409;28;20263;-73
2023/09/30 11:49:49;;;;;;;5.67;1.17;;;21.90;99.90;;;;;;4959630;28;20190;-70
2023/09/30 11:52:15;;;;;;;5.03;1.30;;;22.00;99.90;;;;;;4940187;29;20667;-70
2023/09/30 11:54:45;;;;;;;8.40;1.67;;;22.20;99.90;;;;;;4947751;28;20460;-70
2023/09/30 11:57:15;;;;;;;5.00;1.30;;;22.50;99.90;;;;;;4951740;28;20289;-70
2023/09/30 11:59:41;;;;;;;6.30;1.50;;;22.90;99.90;;;;;;4951616;28;20210;-69
2023/09/30 12:02:10;;;;;;;9.50;1.50;;;23.10;99.90;;;;;;4959263;28;20171;-70
2023/09/30 12:04:36;;;;;;;5.57;1.30;;;23.10;99.90;;;;;;4959538;28;20184;-69
2023/09/30 12:07:02;;;;;;;4.87;1.20;;;22.90;99.90;;;;;;4951137;28;20203;-69
2023/09/30 12:09:29;;;;;;;7.17;1.20;;;22.80;99.90;;;;;;4942771;28;20619;-69
2023/09/30 12:11:57;;;;;;;4.03;1.33;;;22.80;99.90;;;;;;4951111;28;20522;-68
2023/09/30 12:14:24;;;;;;;6.77;1.37;;;22.90;99.90;;;;;;4959158;28;20202;-68
2023/09/30 12:16:50;;;;;;;5.47;1.50;;;23.10;99.90;;;;;;4951107;28;20714;-68
2023/09/30 12:19:19;;;;;;;6.17;1.57;;;23.30;99.90;;;;;;4955116;28;20206;-67
2023/09/30 12:21:48;;;;;;;6.43;1.53;;;23.50;99.90;;;;;;4954993;28;20549;-68
2023/09/30 12:24:19;;;;;;;4.47;1.90;;;23.70;99.90;;;;;;4955329;28;20729;-70
2023/09/30 12:26:49;;;;;;;8.73;1.63;;;23.80;99.90;;;;;;4954291;28;20206;-69
2023/09/30 12:29:19;;;;;;;5.60;1.50;;;23.90;99.90;;;;;;4954529;28;20185;-68
2023/09/30 12:31:45;;;;;;;7.40;1.73;;;24.00;99.90;;;;;;4947737;28;20760;-69
2023/09/30 12:34:12;;;;;;;6.40;1.77;;;24.00;99.90;;;;;;4958985;28;20202;-67
2023/09/30 12:36:42;;;;;;;3.97;1.60;;;24.20;99.90;;;;;;4950945;28;20229;-68
2023/09/30 12:39:11;;;;;;;6.03;1.40;;;24.30;99.90;;;;;;4965045;28;20170;-68
2023/09/30 12:41:41;;;;;;;5.53;1.60;;;24.50;99.90;;;;;;4950950;28;20171;-68